createdAt,value
2018-08-11T00:00:59.598Z,2.40
2018-08-11T00:03:28.535Z,2.53
2018-08-11T00:05:57.931Z,2.30
2018-08-11T00:08:27.318Z,2.60
2018-08-11T00:10:56.458Z,2.10
2018-08-11T00:13:26.103Z,2.30
2018-08-11T00:15:55.142Z,2.10
2018-08-11T00:18:24.218Z,2.23
2018-08-11T00:20:53.459Z,2.80
2018-08-11T00:23:22.471Z,2.53
2018-08-11T00:25:52.143Z,2.10
2018-08-11T00:28:21.110Z,2.60
2018-08-11T00:30:50.294Z,2.57
2018-08-11T00:33:19.416Z,2.40
2018-08-11T00:35:48.406Z,2.23
2018-08-11T00:38:17.818Z,2.43
2018-08-11T00:40:46.867Z,2.80
2018-08-11T00:43:15.940Z,2.30
2018-08-11T00:45:45.096Z,2.43
2018-08-11T00:48:14.185Z,2.30
2018-08-11T00:50:43.597Z,2.53
2018-08-11T00:53:12.856Z,2.27
2018-08-11T00:55:41.856Z,2.00
2018-08-11T00:58:11.022Z,2.37
2018-08-11T01:00:40.052Z,2.53
2018-08-11T01:03:09.584Z,2.47
2018-08-11T01:05:38.603Z,1.90
2018-08-11T01:08:08.120Z,1.90
2018-08-11T01:10:37.222Z,2.30
2018-08-11T01:13:06.464Z,2.43
2018-08-11T01:15:35.557Z,2.07
2018-08-11T01:18:04.384Z,2.53
2018-08-11T01:20:34.138Z,2.57
2018-08-11T01:23:03.131Z,2.50
2018-08-11T01:25:32.390Z,2.20
2018-08-11T01:28:01.386Z,2.13
2018-08-11T01:30:30.505Z,2.13
2018-08-11T01:32:59.528Z,2.60
2018-08-11T01:35:29.287Z,2.57
2018-08-11T01:37:58.485Z,2.30
2018-08-11T01:40:28.883Z,2.87
2018-08-11T01:42:58.196Z,2.50
2018-08-11T01:45:27.279Z,2.60
2018-08-11T01:47:56.378Z,2.70
2018-08-11T01:50:26.239Z,2.87
2018-08-11T01:52:55.723Z,2.87
2018-08-11T01:55:24.821Z,2.73
2018-08-11T01:57:53.896Z,3.30
2018-08-11T02:00:23.214Z,3.10
2018-08-11T02:02:52.400Z,2.83
2018-08-11T02:05:21.517Z,2.90
2018-08-11T02:07:51.124Z,2.80
2018-08-11T02:10:21.291Z,3.17
2018-08-11T02:12:50.250Z,3.40
2018-08-11T02:15:19.442Z,3.40
2018-08-11T02:17:48.632Z,3.40
2018-08-11T02:20:18.796Z,3.87
2018-08-11T02:22:49.194Z,2.83
2018-08-11T02:25:18.436Z,3.30
2018-08-11T02:27:47.251Z,3.80
2018-08-11T02:30:17.484Z,3.27
2018-08-11T02:32:47.626Z,3.40
2018-08-11T02:35:17.441Z,3.47
2018-08-11T02:37:46.530Z,3.87
2018-08-11T02:40:16.621Z,3.90
2018-08-11T02:42:46.054Z,3.23
2018-08-11T02:45:16.537Z,3.47
2018-08-11T02:47:46.072Z,3.20
2018-08-11T02:50:15.055Z,3.27
2018-08-11T02:52:44.088Z,3.23
2018-08-11T02:55:13.248Z,2.60
2018-08-11T02:57:42.364Z,3.37
2018-08-11T03:00:12.643Z,2.60
2018-08-11T03:02:42.593Z,3.20
2018-08-11T03:05:12.041Z,3.20
2018-08-11T03:07:41.747Z,2.90
2018-08-11T03:10:12.066Z,2.97
2018-08-11T03:12:41.761Z,2.67
2018-08-11T03:15:11.927Z,2.53
2018-08-11T03:17:41.661Z,2.80
2018-08-11T03:20:14.081Z,2.53
2018-08-11T03:22:43.975Z,3.27
2018-08-11T03:25:13.155Z,3.63
2018-08-11T03:27:42.072Z,3.30
2018-08-11T03:30:12.009Z,3.10
2018-08-11T03:32:41.254Z,3.27
2018-08-11T03:35:10.771Z,3.03
2018-08-11T03:37:39.757Z,3.03
2018-08-11T03:40:09.960Z,2.77
2018-08-11T03:42:39.084Z,2.90
2018-08-11T03:45:08.337Z,2.70
2018-08-11T03:47:37.511Z,3.13
2018-08-11T03:50:07.020Z,2.93
2018-08-11T03:52:36.192Z,2.90
2018-08-11T03:55:05.630Z,2.80
2018-08-11T03:57:34.635Z,3.00
2018-08-11T04:00:03.734Z,2.93
2018-08-11T04:02:32.723Z,2.60
2018-08-11T04:05:01.864Z,2.70
2018-08-11T04:07:31.175Z,3.17
2018-08-11T04:10:00.735Z,3.80
2018-08-11T04:12:30.375Z,2.77
2018-08-11T04:14:59.425Z,2.43
2018-08-11T04:17:44.852Z,3.10
2018-08-11T04:20:14.215Z,3.10
2018-08-11T04:22:43.238Z,3.13
2018-08-11T04:25:12.270Z,2.67
2018-08-11T04:27:41.456Z,2.47
2018-08-11T04:30:11.558Z,3.13
2018-08-11T04:32:41.076Z,3.20
2018-08-11T04:35:10.447Z,3.30
2018-08-11T04:37:40.007Z,3.20
2018-08-11T04:40:08.989Z,3.37
2018-08-11T04:42:38.882Z,3.00
2018-08-11T04:45:08.581Z,2.93
2018-08-11T04:47:38.105Z,3.23
2018-08-11T04:50:07.259Z,3.00
2018-08-11T04:52:37.110Z,3.30
2018-08-11T04:55:06.373Z,3.30
2018-08-11T04:57:35.735Z,3.87
2018-08-11T05:00:05.835Z,3.90
2018-08-11T05:02:35.643Z,4.43
2018-08-11T05:05:05.271Z,3.60
2018-08-11T05:07:34.136Z,3.53
2018-08-11T05:10:03.334Z,3.97
2018-08-11T05:12:32.406Z,4.00
2018-08-11T05:15:01.723Z,4.70
2018-08-11T05:17:30.854Z,4.47
2018-08-11T05:19:59.969Z,4.80
2018-08-11T05:22:29.414Z,4.17
2018-08-11T05:24:58.749Z,4.27
2018-08-11T05:27:28.060Z,3.80
2018-08-11T05:29:57.415Z,3.87
2018-08-11T05:32:26.562Z,4.60
2018-08-11T05:34:56.330Z,4.20
2018-08-11T05:37:26.457Z,4.30
2018-08-11T05:39:55.788Z,5.13
2018-08-11T05:42:25.012Z,4.43
2018-08-11T05:44:54.678Z,3.20
2018-08-11T05:47:23.670Z,4.57
2018-08-11T05:49:52.840Z,4.23
2018-08-11T05:52:22.145Z,4.13
2018-08-11T05:54:51.563Z,4.00
2018-08-11T05:57:21.785Z,4.00
2018-08-11T05:59:50.865Z,3.83
2018-08-11T06:02:19.929Z,4.40
2018-08-11T06:04:48.911Z,4.00
2018-08-11T06:07:18.015Z,4.60
2018-08-11T06:09:47.571Z,4.00
2018-08-11T06:12:16.713Z,4.03
2018-08-11T06:14:45.937Z,4.87
2018-08-11T06:17:15.839Z,3.93
2018-08-11T06:19:45.210Z,4.50
2018-08-11T06:22:14.440Z,4.10
2018-08-11T06:24:43.767Z,4.80
2018-08-11T06:27:14.110Z,3.97
2018-08-11T06:29:43.397Z,4.30
2018-08-11T06:32:12.535Z,4.37
2018-08-11T06:34:41.724Z,4.60
2018-08-11T06:37:11.042Z,4.17
2018-08-11T06:39:40.323Z,3.90
2018-08-11T06:42:09.452Z,3.80
2018-08-11T06:44:38.648Z,3.67
2018-08-11T06:47:08.526Z,4.43
2018-08-11T06:49:38.592Z,4.47
2018-08-11T06:52:07.695Z,4.20
2018-08-11T06:54:36.700Z,4.30
2018-08-11T06:57:06.256Z,3.87
2018-08-11T06:59:35.173Z,3.73
2018-08-11T07:02:04.584Z,4.10
2018-08-11T07:04:34.238Z,3.93
2018-08-11T07:07:03.724Z,4.30
2018-08-11T07:09:32.973Z,4.07
2018-08-11T07:12:02.073Z,3.53
2018-08-11T07:14:31.218Z,4.10
2018-08-11T07:17:00.979Z,3.57
2018-08-11T07:19:30.589Z,3.33
2018-08-11T07:21:59.699Z,3.00
2018-08-11T07:24:28.858Z,3.10
2018-08-11T07:26:58.319Z,3.13
2018-08-11T07:29:27.515Z,3.70
2018-08-11T07:31:56.609Z,3.03
2018-08-11T07:34:25.793Z,3.37
2018-08-11T07:36:56.051Z,3.50
2018-08-11T07:39:25.322Z,3.67
2018-08-11T07:41:54.851Z,3.30
2018-08-11T07:44:24.020Z,3.30
2018-08-11T07:46:53.006Z,3.50
2018-08-11T07:49:22.054Z,3.90
2018-08-11T07:51:51.530Z,3.20
2018-08-11T07:54:20.609Z,3.77
2018-08-11T07:56:49.684Z,3.60
2018-08-11T07:59:18.709Z,3.17
2018-08-11T08:01:47.811Z,3.43
2018-08-11T08:04:17.027Z,3.00
2018-08-11T08:06:46.061Z,3.13
2018-08-11T08:09:15.165Z,3.00
2018-08-11T08:11:44.359Z,3.03
2018-08-11T08:14:13.858Z,3.00
2018-08-11T08:16:42.998Z,2.70
2018-08-11T08:19:12.842Z,2.60
2018-08-11T08:21:43.151Z,3.50
2018-08-11T08:24:13.446Z,3.07
2018-08-11T08:26:42.760Z,3.10
2018-08-11T08:29:12.225Z,3.80
2018-08-11T08:31:41.340Z,3.20
2018-08-11T08:34:10.428Z,3.33
2018-08-11T08:36:39.601Z,3.50
2018-08-11T08:39:11.037Z,3.27
2018-08-11T08:41:40.163Z,3.60
2018-08-11T08:44:09.394Z,3.00
2018-08-11T08:46:38.401Z,3.43
2018-08-11T08:49:07.726Z,3.07
2018-08-11T08:51:36.888Z,3.23
2018-08-11T08:54:06.142Z,3.23
2018-08-11T08:56:36.069Z,2.77
2018-08-11T08:59:05.417Z,3.43
2018-08-11T09:01:34.881Z,2.87
2018-08-11T09:04:04.745Z,2.27
2018-08-11T09:06:33.777Z,2.83
2018-08-11T09:09:03.092Z,3.30
2018-08-11T09:11:32.176Z,2.97
2018-08-11T09:14:02.120Z,3.10
2018-08-11T09:16:31.266Z,2.60
2018-08-11T09:19:00.666Z,3.00
2018-08-11T09:21:29.746Z,3.23
2018-08-11T09:23:58.834Z,3.03
2018-08-11T09:26:28.425Z,2.70
2018-08-11T09:28:57.826Z,2.90
2018-08-11T09:31:27.237Z,2.70
2018-08-11T09:33:56.739Z,2.40
2018-08-11T09:36:25.834Z,2.10
2018-08-11T09:38:54.978Z,2.33
2018-08-11T09:41:24.245Z,2.13
2018-08-11T09:43:53.234Z,2.40
2018-08-11T09:46:22.514Z,2.23
2018-08-11T09:48:51.620Z,2.70
2018-08-11T09:51:20.625Z,2.70
2018-08-11T09:53:49.983Z,2.50
2018-08-11T09:56:19.267Z,2.07
2018-08-11T09:58:48.328Z,2.57
2018-08-11T10:01:23.018Z,3.20
2018-08-11T10:03:52.152Z,2.50
2018-08-11T10:06:21.132Z,2.73
2018-08-11T10:08:50.226Z,2.80
2018-08-11T10:11:19.492Z,3.20
2018-08-11T10:13:48.527Z,3.40
2018-08-11T10:16:17.544Z,3.70
2018-08-11T10:18:46.792Z,3.20
2018-08-11T10:21:15.921Z,2.80
2018-08-11T10:23:44.983Z,2.83
2018-08-11T10:26:14.036Z,3.33
2018-08-11T10:28:43.002Z,2.87
2018-08-11T10:31:12.365Z,3.00
2018-08-11T10:33:41.806Z,2.80
2018-08-11T10:36:11.335Z,2.93
2018-08-11T10:38:40.641Z,2.70
2018-08-11T10:41:09.613Z,3.03
2018-08-11T10:43:39.410Z,3.10
2018-08-11T10:46:08.720Z,2.63
2018-08-11T10:48:37.664Z,2.60
2018-08-11T10:51:06.737Z,2.23
2018-08-11T10:53:36.111Z,2.60
2018-08-11T10:56:05.296Z,3.00
2018-08-11T10:58:34.568Z,3.10
2018-08-11T11:01:03.795Z,2.90
2018-08-11T11:03:33.240Z,2.70
2018-08-11T11:06:02.200Z,2.80
2018-08-11T11:08:31.242Z,2.90
2018-08-11T11:11:00.386Z,2.90
2018-08-11T11:13:29.595Z,2.30
2018-08-11T11:15:59.438Z,2.50
2018-08-11T11:18:28.967Z,2.90
2018-08-11T11:20:58.154Z,2.70
2018-08-11T11:23:27.366Z,2.50
2018-08-11T11:25:57.320Z,3.00
2018-08-11T11:28:26.331Z,2.60
2018-08-11T11:30:55.934Z,2.40
2018-08-11T11:33:24.893Z,2.77
2018-08-11T11:35:54.563Z,2.43
2018-08-11T11:38:23.528Z,2.40
2018-08-11T11:40:52.818Z,2.30
2018-08-11T11:43:21.966Z,2.50
2018-08-11T11:45:52.168Z,1.90
2018-08-11T11:48:21.297Z,2.30
2018-08-11T11:50:50.381Z,2.23
2018-08-11T11:53:19.538Z,2.30
2018-08-11T11:55:48.758Z,2.27
2018-08-11T11:58:18.055Z,1.67
2018-08-11T12:00:47.486Z,1.53
2018-08-11T12:03:16.536Z,1.80
2018-08-11T12:05:45.936Z,1.47
2018-08-11T12:08:15.343Z,1.77
2018-08-11T12:10:44.475Z,1.40
2018-08-11T12:13:13.786Z,1.90
2018-08-11T12:15:42.957Z,1.50
2018-08-11T12:18:12.019Z,1.50
2018-08-11T12:20:41.035Z,1.87
2018-08-11T12:23:10.232Z,1.90
2018-08-11T12:25:39.734Z,1.97
2018-08-11T12:28:08.616Z,1.70
2018-08-11T12:30:37.777Z,1.40
2018-08-11T12:33:07.285Z,1.70
2018-08-11T12:35:36.468Z,1.80
2018-08-11T12:38:05.536Z,2.00
2018-08-11T12:40:34.944Z,1.60
2018-08-11T12:43:03.962Z,2.50
2018-08-11T12:45:33.163Z,1.77
2018-08-11T12:48:02.450Z,1.50
2018-08-11T12:50:31.795Z,1.33
2018-08-11T12:53:01.469Z,1.63
2018-08-11T12:55:30.928Z,1.83
2018-08-11T12:57:59.894Z,2.13
2018-08-11T13:00:28.943Z,2.17
2018-08-11T13:02:58.045Z,1.60
2018-08-11T13:05:27.120Z,1.90
2018-08-11T13:07:56.186Z,2.00
2018-08-11T13:10:25.519Z,1.70
2018-08-11T13:12:54.628Z,1.70
2018-08-11T13:15:23.896Z,1.60
2018-08-11T13:17:54.315Z,1.93
2018-08-11T13:20:23.305Z,1.93
2018-08-11T13:22:52.512Z,1.60
2018-08-11T13:25:22.607Z,2.03
2018-08-11T13:27:51.894Z,1.97
2018-08-11T13:30:21.242Z,1.77
2018-08-11T13:32:50.560Z,2.00
2018-08-11T13:35:19.793Z,1.60
2018-08-11T13:37:48.810Z,1.80
2018-08-11T13:40:17.915Z,1.87
2018-08-11T13:42:47.232Z,1.93
2018-08-11T13:45:16.811Z,2.17
2018-08-11T13:47:45.942Z,2.10
2018-08-11T13:50:15.088Z,2.03
2018-08-11T13:52:44.249Z,1.90
2018-08-11T13:55:13.768Z,1.87
2018-08-11T13:57:43.038Z,2.20
2018-08-11T14:00:12.049Z,2.20
2018-08-11T14:02:41.292Z,2.23
2018-08-11T14:05:10.735Z,2.00
2018-08-11T14:07:39.882Z,2.30
2018-08-11T14:10:10.545Z,2.33
2018-08-11T14:12:39.941Z,2.10
2018-08-11T14:15:09.535Z,2.43
2018-08-11T14:17:39.822Z,2.33
2018-08-11T14:20:10.362Z,2.20
2018-08-11T14:22:40.090Z,1.90
2018-08-11T14:25:09.260Z,1.87
2018-08-11T14:27:38.482Z,1.70
2018-08-11T14:30:09.781Z,1.83
2018-08-11T14:32:39.179Z,2.03
2018-08-11T14:35:09.329Z,1.77
2018-08-11T14:37:38.695Z,2.10
2018-08-11T14:40:08.993Z,1.80
2018-08-11T14:42:38.870Z,2.10
2018-08-11T14:45:10.054Z,1.60
2018-08-11T14:47:39.365Z,1.70
2018-08-11T14:50:08.316Z,1.43
2018-08-11T14:52:37.530Z,1.90
2018-08-11T14:55:06.864Z,2.10
2018-08-11T14:57:35.858Z,1.87
2018-08-11T15:00:08.062Z,1.60
2018-08-11T15:02:37.246Z,1.70
2018-08-11T15:05:07.004Z,1.50
2018-08-11T15:07:36.344Z,1.50
2018-08-11T15:10:06.379Z,1.70
2018-08-11T15:12:35.877Z,1.70
2018-08-11T15:15:06.419Z,1.80
2018-08-11T15:17:35.435Z,1.90
2018-08-11T15:20:05.215Z,1.43
2018-08-11T15:22:34.427Z,1.70
2018-08-11T15:25:03.599Z,1.63
2018-08-11T15:27:32.655Z,1.20
2018-08-11T15:30:02.695Z,1.47
2018-08-11T15:32:32.216Z,1.70
2018-08-11T15:35:01.262Z,2.03
2018-08-11T15:37:30.357Z,1.50
2018-08-11T15:39:59.311Z,1.50
2018-08-11T15:42:28.361Z,1.20
2018-08-11T15:44:57.694Z,1.40
2018-08-11T15:47:26.848Z,1.40
2018-08-11T15:49:56.316Z,1.43
2018-08-11T15:52:25.771Z,1.00
2018-08-11T15:54:55.028Z,1.43
2018-08-11T15:57:24.077Z,1.50
2018-08-11T15:59:53.034Z,1.63
2018-08-11T16:02:25.306Z,1.30
2018-08-11T16:04:57.682Z,1.10
2018-08-11T16:07:29.967Z,1.33
2018-08-11T16:10:01.743Z,1.33
2018-08-11T16:12:33.825Z,1.40
2018-08-11T16:15:03.095Z,1.30
2018-08-11T16:17:32.057Z,1.23
2018-08-11T16:20:01.451Z,1.17
2018-08-11T16:22:30.648Z,1.40
2018-08-11T16:24:59.882Z,1.10
2018-08-11T16:27:29.380Z,1.33
2018-08-11T16:29:58.775Z,1.13
2018-08-11T16:32:28.446Z,1.30
2018-08-11T16:34:57.499Z,1.10
2018-08-11T16:37:26.592Z,1.30
2018-08-11T16:39:56.016Z,1.40
2018-08-11T16:42:25.236Z,1.20
2018-08-11T16:44:54.910Z,1.33
2018-08-11T16:47:23.986Z,1.30
2018-08-11T16:49:53.098Z,1.10
2018-08-11T16:52:22.308Z,1.10
2018-08-11T16:54:52.015Z,1.23
2018-08-11T16:57:21.523Z,2.13
2018-08-11T16:59:57.100Z,1.40
2018-08-11T17:02:26.221Z,1.40
2018-08-11T17:04:55.378Z,1.30
2018-08-11T17:07:24.611Z,1.40
2018-08-11T17:09:53.604Z,1.50
2018-08-11T17:12:22.650Z,1.30
2018-08-11T17:14:51.719Z,1.50
2018-08-11T17:17:22.358Z,1.23
2018-08-11T17:19:51.747Z,1.13
2018-08-11T17:22:20.736Z,1.20
2018-08-11T17:24:50.163Z,1.30
2018-08-11T17:27:19.450Z,1.10
2018-08-11T17:29:48.586Z,1.37
2018-08-11T17:32:17.772Z,1.20
2018-08-11T17:34:47.039Z,1.20
2018-08-11T17:37:16.458Z,1.43
2018-08-11T17:39:45.550Z,1.80
2018-08-11T17:42:14.414Z,1.23
2018-08-11T17:44:43.564Z,1.50
2018-08-11T17:47:12.745Z,1.37
2018-08-11T17:49:42.041Z,1.40
2018-08-11T17:52:11.215Z,1.63
2018-08-11T17:54:40.226Z,1.27
2018-08-11T17:57:09.834Z,1.63
2018-08-11T17:59:39.134Z,1.27
2018-08-11T18:02:08.819Z,1.40
2018-08-11T18:04:38.163Z,1.50
2018-08-11T18:07:07.612Z,1.40
2018-08-11T18:09:38.536Z,1.70
2018-08-11T18:12:07.964Z,1.50
2018-08-11T18:14:37.119Z,1.40
2018-08-11T18:17:06.200Z,1.60
2018-08-11T18:19:35.938Z,1.60
2018-08-11T18:22:05.093Z,1.77
2018-08-11T18:24:34.306Z,1.67
2018-08-11T18:27:03.195Z,1.70
2018-08-11T18:29:32.292Z,1.70
2018-08-11T18:32:01.753Z,1.33
2018-08-11T18:34:31.317Z,1.60
2018-08-11T18:37:00.526Z,1.47
2018-08-11T18:39:29.658Z,1.90
2018-08-11T18:41:58.784Z,1.43
2018-08-11T18:44:28.476Z,1.87
2018-08-11T18:46:57.551Z,1.70
2018-08-11T18:49:27.400Z,2.03
2018-08-11T18:51:56.567Z,1.60
2018-08-11T18:54:25.865Z,1.80
2018-08-11T18:56:55.008Z,2.10
2018-08-11T18:59:24.748Z,1.90
2018-08-11T19:01:53.665Z,1.60
2018-08-11T19:04:22.809Z,1.50
2018-08-11T19:06:52.125Z,2.00
2018-08-11T19:09:21.296Z,1.70
2018-08-11T19:11:50.729Z,1.70
2018-08-11T19:14:19.899Z,2.30
2018-08-11T19:16:49.058Z,1.77
2018-08-11T19:19:18.123Z,1.80
2018-08-11T19:21:47.379Z,1.53
2018-08-11T19:24:16.798Z,1.90
2018-08-11T19:26:45.938Z,2.17
2018-08-11T19:29:15.207Z,2.17
2018-08-11T19:31:44.530Z,1.60
2018-08-11T19:34:13.810Z,1.37
2018-08-11T19:36:43.163Z,1.77
2018-08-11T19:39:13.147Z,1.70
2018-08-11T19:41:42.522Z,1.70
2018-08-11T19:44:11.843Z,1.87
2018-08-11T19:46:41.163Z,1.70
2018-08-11T19:49:10.479Z,2.03
2018-08-11T19:51:39.885Z,2.30
2018-08-11T19:54:09.121Z,2.20
2018-08-11T19:56:38.180Z,2.13
2018-08-11T19:59:07.972Z,1.57
2018-08-11T20:01:37.490Z,2.20
2018-08-11T20:04:07.007Z,2.37
2018-08-11T20:06:36.167Z,1.60
2018-08-11T20:09:07.207Z,2.20
2018-08-11T20:11:36.480Z,1.87
2018-08-11T20:14:06.478Z,1.80
2018-08-11T20:16:35.862Z,1.83
2018-08-11T20:19:05.632Z,2.30
2018-08-11T20:21:34.855Z,2.00
2018-08-11T20:24:04.215Z,1.53
2018-08-11T20:26:33.447Z,1.73
2018-08-11T20:29:02.657Z,2.20
2018-08-11T20:31:32.667Z,2.20
2018-08-11T20:34:02.419Z,2.17
2018-08-11T20:36:34.645Z,1.83
2018-08-11T20:39:04.523Z,2.20
2018-08-11T20:41:33.966Z,1.87
2018-08-11T20:44:03.202Z,1.70
2018-08-11T20:46:33.004Z,1.80
2018-08-11T20:49:02.098Z,2.33
2018-08-11T20:51:31.402Z,2.00
2018-08-11T20:54:00.979Z,1.90
2018-08-11T20:56:30.466Z,2.20
2018-08-11T20:59:00.474Z,2.20
2018-08-11T21:01:29.832Z,2.20
2018-08-11T21:04:05.733Z,1.90
2018-08-11T21:06:35.134Z,1.90
2018-08-11T21:09:04.387Z,1.87
2018-08-11T21:11:33.416Z,1.97
2018-08-11T21:14:03.047Z,2.23
2018-08-11T21:16:32.060Z,1.90
2018-08-11T21:19:01.663Z,2.30
2018-08-11T21:21:30.663Z,1.93
2018-08-11T21:23:59.964Z,1.87
2018-08-11T21:26:29.299Z,2.27
2018-08-11T21:28:58.861Z,2.20
2018-08-11T21:31:27.987Z,2.40
2018-08-11T21:33:57.985Z,2.40
2018-08-11T21:36:27.198Z,2.10
2018-08-11T21:38:56.504Z,2.20
2018-08-11T21:41:26.418Z,2.03
2018-08-11T21:43:55.577Z,2.30
2018-08-11T21:46:25.170Z,2.23
2018-08-11T21:48:54.581Z,2.00
2018-08-11T21:51:23.905Z,2.10
2018-08-11T21:53:54.433Z,2.20
2018-08-11T21:56:23.717Z,2.77
2018-08-11T21:58:52.662Z,2.03
2018-08-11T22:01:22.643Z,2.30
2018-08-11T22:03:51.728Z,2.30
2018-08-11T22:06:21.657Z,2.10
2018-08-11T22:08:51.286Z,2.60
2018-08-11T22:11:20.363Z,1.97
2018-08-11T22:13:49.343Z,1.87
2018-08-11T22:16:18.415Z,2.20
2018-08-11T22:18:48.938Z,1.80
2018-08-11T22:21:24.308Z,2.30
2018-08-11T22:23:53.501Z,2.10
2018-08-11T22:26:23.225Z,2.53
2018-08-11T22:28:53.152Z,1.90
2018-08-11T22:31:22.204Z,2.00
2018-08-11T22:33:51.319Z,2.23
2018-08-11T22:36:21.046Z,1.97
2018-08-11T22:38:50.047Z,1.80
2018-08-11T22:41:19.143Z,1.93
2018-08-11T22:43:48.428Z,2.10
2018-08-11T22:46:17.715Z,2.10
2018-08-11T22:48:46.743Z,1.93
2018-08-11T22:51:16.035Z,2.03
2018-08-11T22:53:45.442Z,2.40
2018-08-11T22:56:14.670Z,2.00
2018-08-11T22:58:45.292Z,2.10
2018-08-11T23:01:14.656Z,2.27
2018-08-11T23:03:43.896Z,1.60
2018-08-11T23:06:13.466Z,1.97
2018-08-11T23:08:43.022Z,2.30
2018-08-11T23:11:12.144Z,1.90
2018-08-11T23:13:41.266Z,2.13
2018-08-11T23:16:10.543Z,2.20
2018-08-11T23:18:39.610Z,1.90
2018-08-11T23:21:09.072Z,2.17
2018-08-11T23:23:38.569Z,2.20
2018-08-11T23:26:07.803Z,1.97
2018-08-11T23:28:36.895Z,2.30
2018-08-11T23:31:06.030Z,2.07
2018-08-11T23:33:35.044Z,2.00
2018-08-11T23:36:04.253Z,2.33
2018-08-11T23:38:33.440Z,2.33
2018-08-11T23:41:02.577Z,2.17
2018-08-11T23:43:32.221Z,2.43
2018-08-11T23:46:01.261Z,2.20
2018-08-11T23:48:30.651Z,1.90
2018-08-11T23:51:00.061Z,2.30
2018-08-11T23:53:29.153Z,2.30
2018-08-11T23:55:58.483Z,2.07
2018-08-11T23:58:27.737Z,2.20
